createdAt,value
2018-11-02T00:02:01.771Z,10.00
2018-11-02T00:04:34.203Z,10.00
2018-11-02T00:07:06.720Z,10.00
2018-11-02T00:09:39.160Z,10.00
2018-11-02T00:12:11.677Z,10.10
2018-11-02T00:14:44.246Z,9.90
2018-11-02T00:17:16.917Z,9.90
2018-11-02T00:19:49.331Z,9.80
2018-11-02T00:22:21.771Z,9.90
2018-11-02T00:24:54.345Z,9.90
2018-11-02T00:27:26.722Z,9.90
2018-11-02T00:29:59.128Z,9.80
2018-11-02T00:32:31.760Z,9.90
2018-11-02T00:35:04.747Z,9.80
2018-11-02T00:37:37.189Z,9.80
2018-11-02T00:40:09.583Z,9.80
2018-11-02T00:42:42.052Z,9.80
2018-11-02T00:45:15.138Z,9.80
2018-11-02T00:47:47.624Z,9.70
2018-11-02T00:50:20.290Z,9.70
2018-11-02T00:52:53.060Z,9.80
2018-11-02T00:55:25.451Z,9.60
2018-11-02T00:57:57.966Z,9.50
2018-11-02T01:00:30.372Z,9.40
2018-11-02T01:03:02.870Z,9.40
2018-11-02T01:05:35.313Z,9.50
2018-11-02T01:08:07.770Z,9.50
2018-11-02T01:10:40.183Z,9.60
2018-11-02T01:13:12.767Z,9.60
2018-11-02T01:15:45.149Z,9.40
2018-11-02T01:18:17.574Z,9.30
2018-11-02T01:20:49.994Z,9.40
2018-11-02T01:23:22.406Z,9.50
2018-11-02T01:28:36.026Z,9.40
2018-11-02T01:31:08.477Z,9.10
2018-11-02T01:33:41.166Z,9.00
2018-11-02T01:36:13.935Z,9.00
2018-11-02T01:38:46.364Z,9.00
2018-11-02T01:41:18.871Z,9.10
2018-11-02T01:43:51.278Z,9.30
2018-11-02T01:46:23.778Z,9.20
2018-11-02T01:48:56.530Z,9.30
2018-11-02T01:51:28.979Z,9.30
2018-11-02T01:54:01.406Z,9.30
2018-11-02T01:56:33.780Z,9.20
2018-11-02T01:59:06.259Z,9.30
2018-11-02T02:01:38.731Z,9.20
2018-11-02T02:04:11.207Z,9.30
2018-11-02T02:06:43.638Z,9.30
2018-11-02T02:09:16.238Z,9.20
2018-11-02T02:11:48.649Z,9.30
2018-11-02T02:14:21.119Z,9.20
2018-11-02T02:16:53.631Z,9.30
2018-11-02T02:19:26.318Z,9.20
2018-11-02T02:21:59.099Z,9.20
2018-11-02T02:24:31.581Z,9.10
2018-11-02T02:27:04.966Z,9.10
2018-11-02T02:29:37.478Z,9.10
2018-11-02T02:32:10.353Z,8.90
2018-11-02T02:34:42.974Z,9.00
2018-11-02T02:37:16.573Z,9.00
2018-11-02T02:39:48.979Z,9.20
2018-11-02T02:42:21.403Z,9.10
2018-11-02T02:44:53.810Z,9.00
2018-11-02T02:47:26.346Z,9.10
2018-11-02T02:49:58.906Z,9.10
2018-11-02T02:52:31.412Z,9.20
2018-11-02T02:55:04.687Z,9.20
2018-11-02T02:57:37.600Z,9.10
2018-11-02T03:00:12.795Z,9.20
2018-11-02T03:02:45.609Z,9.10
2018-11-02T03:05:18.027Z,9.00
2018-11-02T03:07:50.559Z,9.00
2018-11-02T03:10:23.170Z,9.20
2018-11-02T03:12:55.544Z,9.10
2018-11-02T03:15:28.044Z,9.10
2018-11-02T03:18:00.438Z,9.10
2018-11-02T03:20:32.894Z,9.20
2018-11-02T03:23:05.369Z,9.20
2018-11-02T03:25:38.166Z,9.20
2018-11-02T03:28:10.958Z,9.20
2018-11-02T03:30:43.482Z,9.20
2018-11-02T03:33:15.947Z,9.20
2018-11-02T03:35:48.437Z,9.20
2018-11-02T03:38:21.225Z,9.20
2018-11-02T03:40:53.666Z,9.20
2018-11-02T03:43:26.157Z,9.20
2018-11-02T03:45:58.641Z,9.20
2018-11-02T03:48:31.052Z,9.20
2018-11-02T03:51:03.563Z,9.30
2018-11-02T03:53:36.446Z,9.30
2018-11-02T03:56:08.900Z,9.20
2018-11-02T03:58:41.378Z,9.20
2018-11-02T04:01:13.823Z,9.00
2018-11-02T04:03:46.323Z,9.00
2018-11-02T04:06:18.853Z,9.20
2018-11-02T04:08:51.354Z,9.20
2018-11-02T04:11:25.621Z,9.10
2018-11-02T04:13:58.013Z,9.10
2018-11-02T04:16:30.425Z,9.20
2018-11-02T04:19:02.937Z,9.20
2018-11-02T04:21:39.071Z,9.20
2018-11-02T04:24:11.743Z,9.30
2018-11-02T04:26:44.222Z,9.20
2018-11-02T04:29:16.684Z,9.20
2018-11-02T04:31:49.195Z,9.10
2018-11-02T04:34:22.207Z,9.20
2018-11-02T04:36:54.650Z,9.10
2018-11-02T04:39:27.371Z,9.20
2018-11-02T04:42:00.130Z,9.00
2018-11-02T04:44:32.716Z,9.10
2018-11-02T04:47:05.365Z,8.90
2018-11-02T04:49:38.056Z,9.00
2018-11-02T04:52:10.596Z,9.10
2018-11-02T04:54:43.058Z,9.20
2018-11-02T04:57:15.465Z,9.20
2018-11-02T04:59:48.178Z,9.10
2018-11-02T05:02:20.617Z,9.10
2018-11-02T05:04:53.061Z,9.00
2018-11-02T05:07:25.502Z,9.00
2018-11-02T05:09:58.125Z,9.00
2018-11-02T05:12:30.514Z,9.00
2018-11-02T05:15:03.634Z,9.00
2018-11-02T05:17:36.174Z,9.00
2018-11-02T05:20:09.917Z,9.00
2018-11-02T05:22:42.434Z,9.00
2018-11-02T05:25:14.965Z,8.90
2018-11-02T05:27:47.414Z,8.90
2018-11-02T05:30:19.776Z,8.90
2018-11-02T05:32:53.517Z,9.00
2018-11-02T05:35:25.922Z,8.90
2018-11-02T05:37:58.359Z,8.80
2018-11-02T05:40:30.833Z,8.70
2018-11-02T05:43:03.385Z,8.80
2018-11-02T05:45:35.754Z,8.80
2018-11-02T05:48:08.246Z,8.80
2018-11-02T05:50:40.939Z,8.90
2018-11-02T05:53:13.486Z,8.90
2018-11-02T05:55:45.960Z,9.00
2018-11-02T05:58:18.397Z,8.90
2018-11-02T06:00:50.901Z,8.90
2018-11-02T06:03:23.306Z,9.00
2018-11-02T06:05:55.767Z,9.00
2018-11-02T06:08:28.294Z,9.00
2018-11-02T06:11:00.956Z,8.90
2018-11-02T06:13:33.732Z,8.80
2018-11-02T06:16:06.605Z,8.80
2018-11-02T06:18:39.110Z,9.20
2018-11-02T06:21:11.585Z,9.10
2018-11-02T06:23:44.049Z,9.30
2018-11-02T06:26:16.494Z,9.20
2018-11-02T06:28:48.965Z,9.20
2018-11-02T06:31:21.605Z,9.20
2018-11-02T06:33:54.151Z,9.30
2018-11-02T06:36:26.654Z,9.20
2018-11-02T06:38:59.236Z,9.20
2018-11-02T06:41:31.681Z,9.30
2018-11-02T06:44:04.240Z,9.30
2018-11-02T06:46:36.685Z,9.30
2018-11-02T06:49:09.103Z,9.50
2018-11-02T06:51:41.591Z,9.60
2018-11-02T06:54:14.004Z,9.70
2018-11-02T06:56:46.470Z,9.60
2018-11-02T06:59:18.944Z,9.60
2018-11-02T07:01:51.349Z,9.90
2018-11-02T07:04:23.720Z,9.70
2018-11-02T07:06:56.219Z,9.80
2018-11-02T07:09:28.620Z,9.90
2018-11-02T07:12:01.251Z,10.00
2018-11-02T07:14:33.853Z,9.70
2018-11-02T07:17:06.450Z,9.70
2018-11-02T07:19:39.027Z,9.70
2018-11-02T07:22:11.702Z,9.60
2018-11-02T07:24:44.151Z,9.60
2018-11-02T07:27:16.625Z,9.70
2018-11-02T07:29:49.043Z,9.80
2018-11-02T07:32:21.497Z,9.70
2018-11-02T07:34:54.512Z,9.80
2018-11-02T07:37:26.986Z,9.80
2018-11-02T07:40:00.153Z,9.70
2018-11-02T07:42:32.609Z,9.60
2018-11-02T07:45:05.663Z,9.50
2018-11-02T07:47:38.283Z,9.60
2018-11-02T07:50:11.596Z,9.60
2018-11-02T07:52:44.341Z,9.70
2018-11-02T07:55:16.830Z,9.70
2018-11-02T07:57:49.389Z,9.80
2018-11-02T08:00:21.844Z,9.80
2018-11-02T08:02:54.267Z,9.90
2018-11-02T08:05:26.649Z,10.00
2018-11-02T08:07:59.236Z,10.00
2018-11-02T08:10:31.644Z,10.10
2018-11-02T08:13:04.360Z,10.30
2018-11-02T08:15:37.597Z,10.30
2018-11-02T08:18:10.017Z,10.30
2018-11-02T08:20:45.575Z,10.30
2018-11-02T08:23:18.080Z,10.50
2018-11-02T08:25:50.541Z,10.40
2018-11-02T08:28:22.953Z,10.30
2018-11-02T08:30:56.158Z,10.40
2018-11-02T08:33:28.677Z,10.50
2018-11-02T08:36:01.197Z,10.40
2018-11-02T08:38:33.789Z,10.30
2018-11-02T08:41:06.251Z,10.30
2018-11-02T08:43:38.719Z,10.40
2018-11-02T08:46:11.157Z,10.40
2018-11-02T08:48:43.557Z,10.30
2018-11-02T08:51:16.032Z,10.30
2018-11-02T08:53:48.465Z,10.30
2018-11-02T08:56:20.977Z,10.30
2018-11-02T08:58:53.528Z,10.30
2018-11-02T09:01:25.894Z,10.40
2018-11-02T09:03:58.366Z,10.50
2018-11-02T09:06:30.861Z,10.60
2018-11-02T09:09:04.964Z,10.60
2018-11-02T09:14:09.964Z,10.80
2018-11-02T09:16:42.471Z,10.80
2018-11-02T09:19:14.919Z,10.70
2018-11-02T09:21:47.524Z,10.80
2018-11-02T09:24:20.102Z,10.90
2018-11-02T09:26:52.574Z,10.80
2018-11-02T09:29:25.161Z,11.00
2018-11-02T09:31:57.686Z,11.00
2018-11-02T09:34:30.221Z,10.90
2018-11-02T09:37:02.729Z,10.90
2018-11-02T09:39:35.182Z,11.00
2018-11-02T09:42:07.691Z,11.10
2018-11-02T09:44:40.190Z,11.20
2018-11-02T09:47:12.674Z,11.30
2018-11-02T09:49:45.274Z,11.30
2018-11-02T09:52:17.773Z,11.20
2018-11-02T09:54:50.233Z,11.30
2018-11-02T09:57:22.762Z,11.30
2018-11-02T09:59:55.259Z,11.30
2018-11-02T10:02:28.018Z,11.50
2018-11-02T10:05:00.735Z,11.40
2018-11-02T10:07:33.316Z,11.40
2018-11-02T10:10:07.031Z,11.50
2018-11-02T10:12:39.530Z,11.50
2018-11-02T10:15:13.494Z,11.60
2018-11-02T10:17:46.420Z,11.70
2018-11-02T10:20:19.188Z,11.70
2018-11-02T10:22:52.521Z,11.80
2018-11-02T10:25:25.119Z,11.80
2018-11-02T10:27:57.709Z,11.80
2018-11-02T10:30:30.182Z,11.90
2018-11-02T10:33:02.741Z,12.10
2018-11-02T10:35:35.383Z,12.10
2018-11-02T10:38:07.846Z,12.20
2018-11-02T10:40:42.956Z,12.20
2018-11-02T10:43:16.991Z,12.10
2018-11-02T10:45:54.529Z,12.10
2018-11-02T10:48:28.356Z,12.10
2018-11-02T10:51:01.113Z,12.20
2018-11-02T10:53:33.544Z,12.30
2018-11-02T10:56:06.365Z,12.20
2018-11-02T10:58:38.873Z,12.30
2018-11-02T11:06:21.995Z,12.60
2018-11-02T11:11:26.930Z,12.80
2018-11-02T11:13:59.466Z,12.80
2018-11-02T11:16:31.917Z,13.00
2018-11-02T11:19:05.486Z,13.00
2018-11-02T11:21:39.014Z,13.10
2018-11-02T11:24:11.594Z,13.10
2018-11-02T11:26:44.076Z,13.10
2018-11-02T11:29:16.690Z,13.20
2018-11-02T11:31:49.396Z,13.30
2018-11-02T11:34:21.829Z,13.30
2018-11-02T11:36:54.364Z,13.40
2018-11-02T11:39:26.893Z,13.30
2018-11-02T11:41:59.459Z,13.20
2018-11-02T11:44:31.885Z,13.30
2018-11-02T11:47:04.477Z,13.40
2018-11-02T11:49:36.947Z,13.50
2018-11-02T11:54:53.271Z,13.60
2018-11-02T11:57:25.734Z,13.70
2018-11-02T11:59:58.248Z,13.60
2018-11-02T12:02:30.796Z,13.60
2018-11-02T12:05:03.470Z,13.60
2018-11-02T12:07:35.915Z,13.60
2018-11-02T12:10:12.722Z,13.60
2018-11-02T12:12:45.391Z,13.60
2018-11-02T12:15:19.125Z,13.60
2018-11-02T12:17:51.795Z,13.70
2018-11-02T12:20:27.842Z,13.70
2018-11-02T12:23:01.835Z,13.70
2018-11-02T12:25:34.421Z,13.80
2018-11-02T12:28:07.011Z,13.70
2018-11-02T12:30:39.518Z,13.70
2018-11-02T12:33:13.617Z,13.80
2018-11-02T12:35:46.196Z,13.80
2018-11-02T12:38:18.592Z,13.80
2018-11-02T12:40:51.056Z,13.90
2018-11-02T12:43:23.532Z,13.90
2018-11-02T12:45:56.046Z,13.70
2018-11-02T12:48:28.655Z,13.80
2018-11-02T12:51:01.232Z,13.70
2018-11-02T12:53:33.740Z,13.70
2018-11-02T12:56:06.176Z,13.80
2018-11-02T12:58:39.536Z,13.80
2018-11-02T13:01:13.189Z,13.80
2018-11-02T13:03:46.025Z,13.80
2018-11-02T13:06:19.291Z,13.80
2018-11-02T13:08:51.970Z,13.90
2018-11-02T13:11:24.414Z,13.80
2018-11-02T13:13:57.093Z,13.90
2018-11-02T13:16:29.490Z,13.90
2018-11-02T13:19:02.127Z,13.80
2018-11-02T13:21:34.552Z,13.80
2018-11-02T13:24:07.064Z,13.70
2018-11-02T13:26:39.542Z,13.70
2018-11-02T13:29:12.252Z,13.70
2018-11-02T13:31:44.682Z,13.60
2018-11-02T13:34:17.299Z,13.60
2018-11-02T13:36:49.818Z,13.60
2018-11-02T13:39:22.213Z,13.50
2018-11-02T13:41:54.731Z,13.50
2018-11-02T13:44:27.180Z,13.50
2018-11-02T13:46:59.725Z,13.50
2018-11-02T13:49:32.211Z,13.50
2018-11-02T13:52:05.596Z,13.60
2018-11-02T13:54:39.540Z,13.60
2018-11-02T13:57:12.011Z,13.60
2018-11-02T13:59:45.577Z,13.60
2018-11-02T14:02:18.205Z,13.60
2018-11-02T14:04:50.626Z,13.70
2018-11-02T14:07:23.081Z,13.70
2018-11-02T14:09:55.603Z,13.70
2018-11-02T14:12:28.061Z,13.70
2018-11-02T14:15:00.657Z,13.70
2018-11-02T14:17:33.147Z,13.70
2018-11-02T14:20:07.363Z,13.80
2018-11-02T14:22:39.903Z,13.70
2018-11-02T14:25:13.438Z,13.70
2018-11-02T14:27:45.937Z,13.70
2018-11-02T14:30:18.454Z,13.80
2018-11-02T14:32:50.885Z,13.80
2018-11-02T14:35:23.468Z,13.90
2018-11-02T14:37:55.904Z,13.90
2018-11-02T14:40:28.394Z,13.90
2018-11-02T14:43:00.781Z,13.90
2018-11-02T14:45:33.266Z,13.90
2018-11-02T14:48:05.711Z,13.80
2018-11-02T14:50:38.778Z,13.70
2018-11-02T14:53:11.258Z,13.60
2018-11-02T14:55:43.873Z,13.60
2018-11-02T14:58:16.313Z,13.60
2018-11-02T15:00:48.795Z,13.50
2018-11-02T15:03:21.676Z,13.50
2018-11-02T15:05:54.215Z,13.40
2018-11-02T15:08:26.691Z,13.40
2018-11-02T15:10:59.136Z,13.30
2018-11-02T15:13:31.603Z,13.30
2018-11-02T15:16:04.153Z,13.20
2018-11-02T15:18:37.055Z,13.20
2018-11-02T15:21:09.542Z,13.20
2018-11-02T15:23:42.884Z,13.10
2018-11-02T15:26:15.439Z,13.10
2018-11-02T15:28:47.853Z,13.10
2018-11-02T15:31:20.664Z,13.00
2018-11-02T15:36:25.613Z,12.90
2018-11-02T15:38:58.121Z,12.80
2018-11-02T15:41:30.635Z,12.80
2018-11-02T15:44:03.202Z,12.90
2018-11-02T15:46:35.727Z,12.80
2018-11-02T15:49:08.418Z,12.90
2018-11-02T15:51:40.884Z,12.80
2018-11-02T15:54:14.082Z,12.80
2018-11-02T15:59:19.462Z,12.60
2018-11-02T16:01:51.960Z,12.50
2018-11-02T16:04:24.454Z,12.50
2018-11-02T16:06:56.978Z,12.60
2018-11-02T16:09:29.477Z,12.60
2018-11-02T16:12:02.077Z,12.50
2018-11-02T16:14:34.787Z,12.40
2018-11-02T16:17:07.219Z,12.30
2018-11-02T16:19:39.673Z,12.20
2018-11-02T16:22:12.094Z,12.10
2018-11-02T16:24:44.571Z,12.10
2018-11-02T16:27:17.050Z,12.20
2018-11-02T16:29:49.534Z,12.20
2018-11-02T16:32:21.971Z,12.30
2018-11-02T16:34:54.631Z,12.10
2018-11-02T16:37:27.647Z,12.00
2018-11-02T16:40:00.436Z,12.00
2018-11-02T16:42:32.922Z,11.90
2018-11-02T16:45:07.346Z,11.90
2018-11-02T16:47:40.170Z,12.00
2018-11-02T16:50:13.698Z,12.00
2018-11-02T16:52:46.113Z,11.90
2018-11-02T16:55:18.541Z,11.90
2018-11-02T16:57:52.284Z,12.00
2018-11-02T17:00:24.630Z,12.00
2018-11-02T17:02:57.054Z,12.00
2018-11-02T17:05:29.451Z,11.90
2018-11-02T17:08:02.062Z,11.90
2018-11-02T17:10:34.581Z,11.80
2018-11-02T17:13:07.048Z,11.90
2018-11-02T17:16:42.509Z,11.80
2018-11-02T17:19:15.144Z,11.80
2018-11-02T17:21:47.593Z,11.70
2018-11-02T17:24:20.024Z,11.70
2018-11-02T17:26:52.570Z,11.70
2018-11-02T17:29:25.228Z,11.60
2018-11-02T17:31:57.821Z,11.60
2018-11-02T17:34:30.330Z,11.60
2018-11-02T17:37:02.847Z,11.60
2018-11-02T17:39:35.406Z,11.60
2018-11-02T17:42:07.869Z,11.60
2018-11-02T17:44:40.510Z,11.70
2018-11-02T17:47:13.092Z,11.70
2018-11-02T17:49:45.682Z,11.70
2018-11-02T17:52:18.320Z,11.70
2018-11-02T17:54:50.820Z,11.70
2018-11-02T17:57:23.323Z,11.70
2018-11-02T17:59:55.844Z,11.70
2018-11-02T18:02:28.331Z,11.80
2018-11-02T18:05:00.777Z,11.70
2018-11-02T18:07:33.311Z,11.70
2018-11-02T18:10:07.777Z,11.70
2018-11-02T18:12:40.612Z,11.60
2018-11-02T18:15:13.652Z,11.60
2018-11-02T18:17:46.084Z,11.70
2018-11-02T18:20:18.612Z,11.70
2018-11-02T18:22:51.043Z,11.70
2018-11-02T18:25:23.679Z,11.70
2018-11-02T18:27:56.634Z,11.80
2018-11-02T18:30:29.090Z,11.70
2018-11-02T18:33:01.501Z,11.70
2018-11-02T18:35:34.155Z,11.80
2018-11-02T18:38:06.425Z,11.90
2018-11-02T18:40:39.172Z,11.80
2018-11-02T18:43:11.653Z,11.70
2018-11-02T18:45:44.105Z,11.70
2018-11-02T18:48:16.652Z,11.70
2018-11-02T18:50:49.302Z,11.60
2018-11-02T18:53:21.892Z,11.70
2018-11-02T18:55:54.308Z,11.70
2018-11-02T18:58:26.769Z,11.70
2018-11-02T19:00:59.299Z,11.60
2018-11-02T19:03:31.784Z,11.50
2018-11-02T19:06:04.329Z,11.40
2018-11-02T19:08:36.722Z,11.30
2018-11-02T19:11:09.265Z,11.30
2018-11-02T19:13:42.114Z,11.20
2018-11-02T19:16:14.546Z,11.10
2018-11-02T19:21:19.810Z,10.90
2018-11-02T19:23:52.399Z,10.80
2018-11-02T19:26:24.849Z,10.70
2018-11-02T19:28:57.401Z,10.70
2018-11-02T19:31:29.957Z,10.60
2018-11-02T19:34:02.627Z,10.60
2018-11-02T19:36:35.176Z,10.60
2018-11-02T19:41:51.022Z,10.50
2018-11-02T19:44:23.485Z,10.50
2018-11-02T19:46:56.001Z,10.50
2018-11-02T19:49:28.473Z,10.60
2018-11-02T19:52:00.910Z,10.80
2018-11-02T19:54:33.381Z,10.80
2018-11-02T19:57:05.821Z,10.70
2018-11-02T19:59:38.230Z,10.70
2018-11-02T20:02:10.896Z,10.60
2018-11-02T20:04:43.349Z,10.60
2018-11-02T20:07:15.809Z,10.60
2018-11-02T20:09:48.305Z,10.70
2018-11-02T20:12:20.726Z,10.70
2018-11-02T20:14:53.157Z,10.70
2018-11-02T20:17:25.624Z,10.80
2018-11-02T20:19:58.125Z,10.80
2018-11-02T20:22:30.764Z,10.80
2018-11-02T20:25:03.524Z,10.90
2018-11-02T20:27:36.091Z,10.80
2018-11-02T20:30:11.224Z,10.90
2018-11-02T20:32:44.026Z,10.90
2018-11-02T20:35:16.587Z,10.80
2018-11-02T20:37:49.118Z,10.90
2018-11-02T20:40:21.597Z,10.90
2018-11-02T20:42:54.072Z,10.90
2018-11-02T20:45:26.572Z,11.00
2018-11-02T20:47:58.993Z,11.00
2018-11-02T20:50:31.423Z,11.00
2018-11-02T20:53:04.117Z,11.00
2018-11-02T20:55:36.757Z,11.00
2018-11-02T20:58:09.354Z,10.90
2018-11-02T21:00:41.846Z,10.90
2018-11-02T21:03:14.433Z,10.80
2018-11-02T21:05:47.179Z,10.70
2018-11-02T21:08:19.643Z,10.70
2018-11-02T21:10:52.105Z,10.70
2018-11-02T21:13:24.784Z,10.70
2018-11-02T21:15:57.225Z,10.80
2018-11-02T21:18:30.167Z,10.80
2018-11-02T21:21:02.683Z,10.70
2018-11-02T21:23:35.131Z,10.90
2018-11-02T21:26:07.605Z,10.80
2018-11-02T21:28:40.089Z,10.90
2018-11-02T21:31:12.542Z,10.80
2018-11-02T21:33:45.028Z,10.80
2018-11-02T21:36:17.435Z,10.90
2018-11-02T21:38:50.051Z,10.70
2018-11-02T21:41:22.513Z,10.70
2018-11-02T21:43:55.106Z,10.60
2018-11-02T21:46:27.594Z,10.50
2018-11-02T21:49:00.126Z,10.50
2018-11-02T21:51:32.666Z,10.60
2018-11-02T21:54:05.230Z,10.50
2018-11-02T21:56:37.764Z,10.60
2018-11-02T21:59:10.903Z,10.50
2018-11-02T22:01:43.326Z,10.50
2018-11-02T22:04:15.833Z,10.40
2018-11-02T22:06:48.278Z,10.40
2018-11-02T22:09:20.687Z,10.30
2018-11-02T22:11:53.124Z,10.30
2018-11-02T22:14:25.548Z,10.40
2018-11-02T22:16:57.998Z,10.50
2018-11-02T22:19:30.762Z,10.50
2018-11-02T22:22:03.144Z,10.40
2018-11-02T22:24:36.485Z,10.40
2018-11-02T22:27:08.908Z,10.40
2018-11-02T22:29:41.305Z,10.40
2018-11-02T22:32:13.809Z,10.30
2018-11-02T22:34:46.211Z,10.20
2018-11-02T22:37:18.831Z,10.20
2018-11-02T22:39:51.255Z,10.20
2018-11-02T22:42:24.015Z,10.10
2018-11-02T22:44:56.419Z,10.10
2018-11-02T22:47:28.957Z,10.00
2018-11-02T22:50:01.418Z,10.00
2018-11-02T22:52:34.029Z,10.10
2018-11-02T22:55:06.982Z,10.10
2018-11-02T22:57:39.459Z,10.00
2018-11-02T23:00:14.562Z,10.00
2018-11-02T23:02:47.711Z,9.90
2018-11-02T23:05:20.289Z,9.80
2018-11-02T23:07:52.717Z,9.60
2018-11-02T23:10:25.126Z,9.60
2018-11-02T23:12:57.519Z,9.70
2018-11-02T23:15:29.977Z,9.70
2018-11-02T23:18:02.329Z,9.70
2018-11-02T23:20:34.738Z,9.70
2018-11-02T23:23:07.207Z,9.90
2018-11-02T23:25:39.754Z,9.90
2018-11-02T23:28:12.224Z,10.00
2018-11-02T23:30:44.733Z,9.90
2018-11-02T23:33:17.151Z,9.80
2018-11-02T23:35:49.565Z,10.00
2018-11-02T23:38:21.959Z,10.00
2018-11-02T23:40:54.429Z,10.00
2018-11-02T23:43:26.823Z,9.80
2018-11-02T23:45:59.341Z,10.00
2018-11-02T23:48:31.766Z,9.80
2018-11-02T23:51:04.205Z,9.80
2018-11-02T23:53:36.664Z,9.90
2018-11-02T23:56:09.157Z,10.00
2018-11-02T23:58:41.629Z,9.80
